메인 페이지
METAR-TAF:

METAR-TAF

공항 :

Cobija, 볼리비아

위도: 11-02S, 경도: 068-47W, 고도: 235m

현재 날씨관측

예보는 14 시간 28분 전, 17:00시(UTC)에 발표되었습니다.
9kt
온도 35°C
습도 56%
기압 1011 hPa
시정 10km 이상
고도 2500ft 상공 구름 많음

METAR: SLCO 211700Z 01009KT 9999 BKN025 35/25 Q1011

시각: 03:28 (07:28 UTC)

예보

예보는 9 시간 28분 전, 22:00시(UTC)에 발표되었습니다.
예보 대상 시간: 22일 00시부터 22일 24시까지 (UTC)
kt
시정 10km 이상
고도 1500ft 상공 구름 보통
고도 2300ft 상공 구름 조금, 적란운.
일시적
22일 10시부터 22일 12시까지 (UTC)
고도 600ft 상공 구름 많음
일시적
22일 13시부터 22일 17시까지 (UTC)
시정: 5000m
고도 1000ft 상공 구름 많음
고도 1700ft 상공 구름 조금, 적란운.
뇌우, 비
전환 중
22일 18시부터 22일 21시까지 (UTC)
10kt
고도 1500ft 상공 구름 보통

TAF: SLCO 212200Z 2200/2224 00000KT 9999 SCT015 FEW023CB TX33/2219Z TN24/2210Z TEMPO 2210/2212 BKN006 TEMPO 2213/2217 5000 TSRA BKN010 FEW017CB BECMG 2218/2221 35010KT SCT015

4,000개 이상의 공항 관측 자료 및 예보 (METAR 및 TAF 보고).

지도상에서 검색 가능한 기상관측소가 노란 점과 빨간 점으로 표시되어 있습니다.

기상관측소 명을 보려면 표시 위로 마우스를 이동하세요.

날씨 관측과 예보를 보려면 클릭하세요.

지도 변경 : 확대하려면 엑스 표시가 있는 녹색 버튼, 축소하려면 빼기 표시가 있는 녹색 버튼, 다음 페이지의 지도를 보려면 녹색 화살표를 클릭하세요.


METAR-TAF: